sensor_id;sensor_type;location;lat;lon;timestamp;P1;durP1;ratioP1;P2;durP2;ratioP2
5890;SDS011;2971;52.420;7.080;2022-08-04T00:00:09;8.63;;;6.03;;
5890;SDS011;2971;52.420;7.080;2022-08-04T00:05:11;10.83;;;7.27;;
5890;SDS011;2971;52.420;7.080;2022-08-04T00:07:52;8.70;;;6.50;;
5890;SDS011;2971;52.420;7.080;2022-08-04T00:10:21;9.70;;;6.63;;
5890;SDS011;2971;52.420;7.080;2022-08-04T00:12:47;9.00;;;6.80;;
5890;SDS011;2971;52.420;7.080;2022-08-04T00:15:14;9.87;;;6.80;;
5890;SDS011;2971;52.420;7.080;2022-08-04T00:17:44;8.87;;;6.20;;
5890;SDS011;2971;52.420;7.080;2022-08-04T00:20:10;11.23;;;7.20;;
5890;SDS011;2971;52.420;7.080;2022-08-04T00:22:37;9.47;;;6.77;;
5890;SDS011;2971;52.420;7.080;2022-08-04T00:25:04;8.90;;;6.60;;
5890;SDS011;2971;52.420;7.080;2022-08-04T00:27:29;8.03;;;6.43;;
5890;SDS011;2971;52.420;7.080;2022-08-04T00:29:55;7.70;;;6.23;;
5890;SDS011;2971;52.420;7.080;2022-08-04T00:32:21;9.70;;;6.30;;
5890;SDS011;2971;52.420;7.080;2022-08-04T00:34:47;9.33;;;6.23;;
5890;SDS011;2971;52.420;7.080;2022-08-04T00:37:12;9.63;;;6.47;;
5890;SDS011;2971;52.420;7.080;2022-08-04T00:39:38;10.10;;;6.33;;
5890;SDS011;2971;52.420;7.080;2022-08-04T00:44:52;9.60;;;7.67;;
5890;SDS011;2971;52.420;7.080;2022-08-04T00:55:14;8.57;;;6.50;;
5890;SDS011;2971;52.420;7.080;2022-08-04T01:00:12;14.20;;;6.90;;
5890;SDS011;2971;52.420;7.080;2022-08-04T01:17:55;9.80;;;5.90;;
5890;SDS011;2971;52.420;7.080;2022-08-04T01:20:23;8.13;;;5.90;;
5890;SDS011;2971;52.420;7.080;2022-08-04T01:22:55;7.90;;;5.80;;
5890;SDS011;2971;52.420;7.080;2022-08-04T01:30:43;8.23;;;5.27;;
5890;SDS011;2971;52.420;7.080;2022-08-04T01:33:11;14.37;;;5.70;;
5890;SDS011;2971;52.420;7.080;2022-08-04T01:35:46;9.87;;;6.37;;
5890;SDS011;2971;52.420;7.080;2022-08-04T01:38:17;6.97;;;4.30;;
5890;SDS011;2971;52.420;7.080;2022-08-04T01:40:44;10.47;;;6.40;;
5890;SDS011;2971;52.420;7.080;2022-08-04T01:43:09;8.50;;;5.03;;
5890;SDS011;2971;52.420;7.080;2022-08-04T01:45:37;10.97;;;6.03;;
5890;SDS011;2971;52.420;7.080;2022-08-04T01:48:03;12.23;;;5.83;;
5890;SDS011;2971;52.420;7.080;2022-08-04T01:50:32;9.47;;;5.10;;
5890;SDS011;2971;52.420;7.080;2022-08-04T01:52:58;9.10;;;5.67;;
5890;SDS011;2971;52.420;7.080;2022-08-04T01:55:24;8.77;;;5.07;;
5890;SDS011;2971;52.420;7.080;2022-08-04T01:57:52;9.37;;;5.37;;
5890;SDS011;2971;52.420;7.080;2022-08-04T02:00:19;12.17;;;6.03;;
5890;SDS011;2971;52.420;7.080;2022-08-04T02:02:45;12.53;;;5.60;;
5890;SDS011;2971;52.420;7.080;2022-08-04T02:05:11;7.33;;;4.50;;
5890;SDS011;2971;52.420;7.080;2022-08-04T02:10:07;11.40;;;5.87;;
5890;SDS011;2971;52.420;7.080;2022-08-04T02:15:23;9.27;;;5.00;;
5890;SDS011;2971;52.420;7.080;2022-08-04T02:20:22;4.97;;;4.47;;
5890;SDS011;2971;52.420;7.080;2022-08-04T02:25:16;7.40;;;4.70;;
5890;SDS011;2971;52.420;7.080;2022-08-04T02:33:25;11.03;;;4.73;;
5890;SDS011;2971;52.420;7.080;2022-08-04T02:35:52;9.07;;;4.47;;
5890;SDS011;2971;52.420;7.080;2022-08-04T02:40:43;8.20;;;4.57;;
5890;SDS011;2971;52.420;7.080;2022-08-04T02:43:10;8.03;;;4.77;;
5890;SDS011;2971;52.420;7.080;2022-08-04T02:45:36;7.33;;;4.23;;
5890;SDS011;2971;52.420;7.080;2022-08-04T02:48:05;12.10;;;4.90;;
5890;SDS011;2971;52.420;7.080;2022-08-04T02:50:32;9.30;;;4.30;;
5890;SDS011;2971;52.420;7.080;2022-08-04T02:52:58;8.23;;;4.50;;
5890;SDS011;2971;52.420;7.080;2022-08-04T02:55:24;9.93;;;4.43;;
5890;SDS011;2971;52.420;7.080;2022-08-04T02:57:51;9.30;;;4.53;;
5890;SDS011;2971;52.420;7.080;2022-08-04T03:00:16;8.20;;;4.27;;
5890;SDS011;2971;52.420;7.080;2022-08-04T03:08:14;10.70;;;5.00;;
5890;SDS011;2971;52.420;7.080;2022-08-04T03:24:05;8.20;;;4.77;;
5890;SDS011;2971;52.420;7.080;2022-08-04T03:39:28;9.97;;;4.70;;
5890;SDS011;2971;52.420;7.080;2022-08-04T03:42:07;8.40;;;4.63;;
5890;SDS011;2971;52.420;7.080;2022-08-04T03:52:55;6.50;;;4.37;;
5890;SDS011;2971;52.420;7.080;2022-08-04T03:56:21;10.03;;;4.70;;
5890;SDS011;2971;52.420;7.080;2022-08-04T04:01:16;9.90;;;5.23;;
5890;SDS011;2971;52.420;7.080;2022-08-04T04:03:57;9.47;;;5.13;;
5890;SDS011;2971;52.420;7.080;2022-08-04T04:08:58;9.60;;;4.80;;
5890;SDS011;2971;52.420;7.080;2022-08-04T04:14:16;10.20;;;5.10;;
5890;SDS011;2971;52.420;7.080;2022-08-04T04:47:12;9.87;;;4.67;;
5890;SDS011;2971;52.420;7.080;2022-08-04T04:49:44;14.13;;;5.60;;
5890;SDS011;2971;52.420;7.080;2022-08-04T04:55:02;13.10;;;4.93;;
5890;SDS011;2971;52.420;7.080;2022-08-04T04:57:29;14.37;;;4.67;;
5890;SDS011;2971;52.420;7.080;2022-08-04T04:59:59;12.03;;;4.53;;
5890;SDS011;2971;52.420;7.080;2022-08-04T05:05:26;13.23;;;4.97;;
5890;SDS011;2971;52.420;7.080;2022-08-04T05:13:24;12.93;;;4.83;;
5890;SDS011;2971;52.420;7.080;2022-08-04T05:15:55;9.13;;;4.23;;
5890;SDS011;2971;52.420;7.080;2022-08-04T05:18:22;9.73;;;4.23;;
5890;SDS011;2971;52.420;7.080;2022-08-04T05:20:53;15.17;;;4.53;;
5890;SDS011;2971;52.420;7.080;2022-08-04T05:23:26;9.37;;;4.63;;
5890;SDS011;2971;52.420;7.080;2022-08-04T05:25:55;9.57;;;3.80;;
5890;SDS011;2971;52.420;7.080;2022-08-04T05:28:23;9.13;;;4.63;;
5890;SDS011;2971;52.420;7.080;2022-08-04T05:30:50;11.67;;;4.23;;
5890;SDS011;2971;52.420;7.080;2022-08-04T05:33:19;10.70;;;4.80;;
5890;SDS011;2971;52.420;7.080;2022-08-04T05:35:45;10.57;;;4.07;;
5890;SDS011;2971;52.420;7.080;2022-08-04T05:38:13;8.30;;;3.50;;
5890;SDS011;2971;52.420;7.080;2022-08-04T05:40:39;7.63;;;4.00;;
5890;SDS011;2971;52.420;7.080;2022-08-04T05:43:06;11.97;;;3.77;;
5890;SDS011;2971;52.420;7.080;2022-08-04T05:45:32;11.43;;;3.90;;
5890;SDS011;2971;52.420;7.080;2022-08-04T05:47:58;7.20;;;4.00;;
5890;SDS011;2971;52.420;7.080;2022-08-04T05:50:25;9.17;;;4.63;;
5890;SDS011;2971;52.420;7.080;2022-08-04T05:52:50;12.70;;;4.63;;
5890;SDS011;2971;52.420;7.080;2022-08-04T05:55:16;11.53;;;4.37;;
5890;SDS011;2971;52.420;7.080;2022-08-04T05:57:41;14.80;;;4.40;;
5890;SDS011;2971;52.420;7.080;2022-08-04T06:00:08;10.50;;;4.27;;
5890;SDS011;2971;52.420;7.080;2022-08-04T06:02:34;10.43;;;3.63;;
5890;SDS011;2971;52.420;7.080;2022-08-04T06:05:00;13.53;;;4.33;;
5890;SDS011;2971;52.420;7.080;2022-08-04T06:07:26;13.27;;;3.90;;
5890;SDS011;2971;52.420;7.080;2022-08-04T06:09:52;10.50;;;4.30;;
5890;SDS011;2971;52.420;7.080;2022-08-04T06:12:19;9.03;;;4.20;;
5890;SDS011;2971;52.420;7.080;2022-08-04T06:14:46;11.87;;;4.30;;
5890;SDS011;2971;52.420;7.080;2022-08-04T06:17:14;9.57;;;4.07;;
5890;SDS011;2971;52.420;7.080;2022-08-04T06:19:40;13.17;;;4.00;;
5890;SDS011;2971;52.420;7.080;2022-08-04T06:22:05;8.03;;;3.60;;
5890;SDS011;2971;52.420;7.080;2022-08-04T06:24:33;11.20;;;3.73;;
5890;SDS011;2971;52.420;7.080;2022-08-04T06:27:00;9.50;;;3.27;;
5890;SDS011;2971;52.420;7.080;2022-08-04T06:29:27;11.70;;;3.90;;
5890;SDS011;2971;52.420;7.080;2022-08-04T06:32:00;9.17;;;3.83;;
5890;SDS011;2971;52.420;7.080;2022-08-04T06:34:27;10.77;;;3.93;;
5890;SDS011;2971;52.420;7.080;2022-08-04T06:36:54;10.33;;;4.47;;
5890;SDS011;2971;52.420;7.080;2022-08-04T06:39:20;8.17;;;3.20;;
5890;SDS011;2971;52.420;7.080;2022-08-04T06:41:46;9.67;;;3.83;;
5890;SDS011;2971;52.420;7.080;2022-08-04T06:44:13;9.40;;;3.67;;
5890;SDS011;2971;52.420;7.080;2022-08-04T06:46:39;11.37;;;3.70;;
5890;SDS011;2971;52.420;7.080;2022-08-04T06:49:04;13.00;;;3.50;;
5890;SDS011;2971;52.420;7.080;2022-08-04T06:51:30;8.93;;;3.50;;
5890;SDS011;2971;52.420;7.080;2022-08-04T06:53:57;11.17;;;3.50;;
5890;SDS011;2971;52.420;7.080;2022-08-04T06:56:22;10.20;;;3.27;;
5890;SDS011;2971;52.420;7.080;2022-08-04T06:58:49;12.00;;;3.57;;
5890;SDS011;2971;52.420;7.080;2022-08-04T07:01:16;11.73;;;3.60;;
5890;SDS011;2971;52.420;7.080;2022-08-04T07:03:43;14.30;;;4.03;;
5890;SDS011;2971;52.420;7.080;2022-08-04T07:06:08;7.27;;;3.37;;
5890;SDS011;2971;52.420;7.080;2022-08-04T07:08:34;6.57;;;3.00;;
5890;SDS011;2971;52.420;7.080;2022-08-04T07:11:00;7.37;;;3.50;;
5890;SDS011;2971;52.420;7.080;2022-08-04T07:13:26;8.27;;;3.20;;
5890;SDS011;2971;52.420;7.080;2022-08-04T07:15:51;10.53;;;3.50;;
5890;SDS011;2971;52.420;7.080;2022-08-04T07:18:18;9.27;;;3.57;;
5890;SDS011;2971;52.420;7.080;2022-08-04T07:20:44;10.57;;;3.40;;
5890;SDS011;2971;52.420;7.080;2022-08-04T07:23:10;7.57;;;3.00;;
5890;SDS011;2971;52.420;7.080;2022-08-04T07:25:37;9.13;;;3.23;;
5890;SDS011;2971;52.420;7.080;2022-08-04T07:28:03;10.85;;;3.40;;
5890;SDS011;2971;52.420;7.080;2022-08-04T07:30:29;11.38;;;3.42;;
5890;SDS011;2971;52.420;7.080;2022-08-04T07:32:55;9.75;;;3.67;;
5890;SDS011;2971;52.420;7.080;2022-08-04T07:35:21;10.80;;;3.90;;
5890;SDS011;2971;52.420;7.080;2022-08-04T07:37:47;7.10;;;3.03;;
5890;SDS011;2971;52.420;7.080;2022-08-04T07:40:12;11.02;;;3.08;;
5890;SDS011;2971;52.420;7.080;2022-08-04T07:42:38;8.48;;;3.20;;
5890;SDS011;2971;52.420;7.080;2022-08-04T07:45:03;8.75;;;3.10;;
5890;SDS011;2971;52.420;7.080;2022-08-04T07:47:28;9.43;;;3.30;;
5890;SDS011;2971;52.420;7.080;2022-08-04T07:49:54;10.43;;;3.13;;
5890;SDS011;2971;52.420;7.080;2022-08-04T07:52:19;5.97;;;3.15;;
5890;SDS011;2971;52.420;7.080;2022-08-04T07:54:45;8.57;;;3.60;;
5890;SDS011;2971;52.420;7.080;2022-08-04T07:57:11;7.70;;;3.25;;
5890;SDS011;2971;52.420;7.080;2022-08-04T07:59:36;7.75;;;3.58;;
5890;SDS011;2971;52.420;7.080;2022-08-04T08:02:02;8.75;;;3.20;;
5890;SDS011;2971;52.420;7.080;2022-08-04T08:04:28;6.40;;;3.80;;
5890;SDS011;2971;52.420;7.080;2022-08-04T08:06:53;8.05;;;3.20;;
5890;SDS011;2971;52.420;7.080;2022-08-04T08:09:19;10.55;;;3.47;;
5890;SDS011;2971;52.420;7.080;2022-08-04T08:11:48;8.77;;;3.10;;
5890;SDS011;2971;52.420;7.080;2022-08-04T08:14:17;8.68;;;3.42;;
5890;SDS011;2971;52.420;7.080;2022-08-04T08:16:43;4.93;;;3.33;;
5890;SDS011;2971;52.420;7.080;2022-08-04T08:19:08;9.95;;;3.72;;
5890;SDS011;2971;52.420;7.080;2022-08-04T08:21:33;7.22;;;3.30;;
5890;SDS011;2971;52.420;7.080;2022-08-04T08:23:59;7.82;;;3.22;;
5890;SDS011;2971;52.420;7.080;2022-08-04T08:26:24;8.07;;;3.60;;
5890;SDS011;2971;52.420;7.080;2022-08-04T08:28:50;9.32;;;3.53;;
5890;SDS011;2971;52.420;7.080;2022-08-04T08:31:15;8.07;;;3.17;;
5890;SDS011;2971;52.420;7.080;2022-08-04T08:33:41;6.18;;;3.10;;
5890;SDS011;2971;52.420;7.080;2022-08-04T08:36:16;8.55;;;3.67;;
5890;SDS011;2971;52.420;7.080;2022-08-04T08:38:46;6.45;;;3.33;;
5890;SDS011;2971;52.420;7.080;2022-08-04T08:41:32;5.78;;;3.22;;
5890;SDS011;2971;52.420;7.080;2022-08-04T08:59:38;8.88;;;3.70;;
5890;SDS011;2971;52.420;7.080;2022-08-04T09:02:32;13.25;;;3.85;;
5890;SDS011;2971;52.420;7.080;2022-08-04T09:10:21;12.77;;;4.75;;
5890;SDS011;2971;52.420;7.080;2022-08-04T09:12:50;12.75;;;4.90;;
5890;SDS011;2971;52.420;7.080;2022-08-04T09:17:49;8.30;;;4.68;;
5890;SDS011;2971;52.420;7.080;2022-08-04T09:20:21;8.77;;;4.75;;
5890;SDS011;2971;52.420;7.080;2022-08-04T09:22:53;10.90;;;5.57;;
5890;SDS011;2971;52.420;7.080;2022-08-04T09:27:50;11.95;;;4.78;;
5890;SDS011;2971;52.420;7.080;2022-08-04T09:30:26;10.80;;;4.85;;
5890;SDS011;2971;52.420;7.080;2022-08-04T09:33:06;12.27;;;4.95;;
5890;SDS011;2971;52.420;7.080;2022-08-04T09:35:43;11.43;;;4.65;;
5890;SDS011;2971;52.420;7.080;2022-08-04T09:40:46;11.70;;;5.28;;
5890;SDS011;2971;52.420;7.080;2022-08-04T09:46:07;11.75;;;5.88;;
5890;SDS011;2971;52.420;7.080;2022-08-04T09:48:39;11.98;;;5.20;;
5890;SDS011;2971;52.420;7.080;2022-08-04T09:51:13;21.13;;;5.50;;
5890;SDS011;2971;52.420;7.080;2022-08-04T09:53:54;16.15;;;5.10;;
5890;SDS011;2971;52.420;7.080;2022-08-04T09:56:35;13.25;;;4.95;;
5890;SDS011;2971;52.420;7.080;2022-08-04T10:01:46;13.27;;;5.78;;
5890;SDS011;2971;52.420;7.080;2022-08-04T10:04:14;10.45;;;4.90;;
5890;SDS011;2971;52.420;7.080;2022-08-04T10:12:14;12.02;;;4.88;;
5890;SDS011;2971;52.420;7.080;2022-08-04T10:14:47;11.88;;;5.47;;
5890;SDS011;2971;52.420;7.080;2022-08-04T10:19:44;27.48;;;7.57;;
5890;SDS011;2971;52.420;7.080;2022-08-04T10:22:19;18.60;;;6.35;;
5890;SDS011;2971;52.420;7.080;2022-08-04T10:27:32;12.07;;;5.07;;
5890;SDS011;2971;52.420;7.080;2022-08-04T10:30:02;11.38;;;5.35;;
5890;SDS011;2971;52.420;7.080;2022-08-04T10:32:34;10.32;;;5.10;;
5890;SDS011;2971;52.420;7.080;2022-08-04T10:37:35;11.00;;;5.07;;
5890;SDS011;2971;52.420;7.080;2022-08-04T10:40:11;10.68;;;4.95;;
5890;SDS011;2971;52.420;7.080;2022-08-04T10:42:57;10.55;;;5.75;;
5890;SDS011;2971;52.420;7.080;2022-08-04T10:45:25;10.95;;;5.25;;
5890;SDS011;2971;52.420;7.080;2022-08-04T10:50:19;8.10;;;4.68;;
5890;SDS011;2971;52.420;7.080;2022-08-04T10:52:47;9.52;;;4.90;;
5890;SDS011;2971;52.420;7.080;2022-08-04T10:55:41;9.68;;;4.65;;
5890;SDS011;2971;52.420;7.080;2022-08-04T10:58:04;10.65;;;5.10;;
5890;SDS011;2971;52.420;7.080;2022-08-04T11:00:32;6.82;;;4.32;;
5890;SDS011;2971;52.420;7.080;2022-08-04T11:08:13;8.77;;;4.28;;
5890;SDS011;2971;52.420;7.080;2022-08-04T11:10:41;10.70;;;4.05;;
5890;SDS011;2971;52.420;7.080;2022-08-04T11:13:10;9.93;;;4.30;;
5890;SDS011;2971;52.420;7.080;2022-08-04T11:15:36;8.07;;;3.95;;
5890;SDS011;2971;52.420;7.080;2022-08-04T11:18:08;8.68;;;4.18;;
5890;SDS011;2971;52.420;7.080;2022-08-04T11:20:41;9.00;;;3.80;;
5890;SDS011;2971;52.420;7.080;2022-08-04T11:23:08;8.70;;;4.10;;
5890;SDS011;2971;52.420;7.080;2022-08-04T11:30:55;6.88;;;3.88;;
5890;SDS011;2971;52.420;7.080;2022-08-04T11:33:43;9.80;;;4.43;;
5890;SDS011;2971;52.420;7.080;2022-08-04T11:41:21;11.68;;;4.70;;
5890;SDS011;2971;52.420;7.080;2022-08-04T11:43:52;9.20;;;4.45;;
5890;SDS011;2971;52.420;7.080;2022-08-04T11:46:38;8.88;;;3.92;;
5890;SDS011;2971;52.420;7.080;2022-08-04T11:49:06;8.55;;;4.15;;
5890;SDS011;2971;52.420;7.080;2022-08-04T11:51:31;10.50;;;4.18;;
5890;SDS011;2971;52.420;7.080;2022-08-04T11:53:59;9.07;;;4.50;;
5890;SDS011;2971;52.420;7.080;2022-08-04T11:56:25;13.10;;;4.50;;
5890;SDS011;2971;52.420;7.080;2022-08-04T11:58:50;9.98;;;4.40;;
5890;SDS011;2971;52.420;7.080;2022-08-04T12:06:25;46.55;;;8.65;;
5890;SDS011;2971;52.420;7.080;2022-08-04T12:08:57;22.02;;;5.95;;
5890;SDS011;2971;52.420;7.080;2022-08-04T12:11:34;20.50;;;5.72;;
5890;SDS011;2971;52.420;7.080;2022-08-04T12:16:51;43.10;;;7.50;;
5890;SDS011;2971;52.420;7.080;2022-08-04T12:19:24;24.75;;;6.55;;
5890;SDS011;2971;52.420;7.080;2022-08-04T12:21:52;11.20;;;6.00;;
5890;SDS011;2971;52.420;7.080;2022-08-04T12:24:23;11.23;;;5.33;;
5890;SDS011;2971;52.420;7.080;2022-08-04T12:26:51;13.13;;;5.67;;
5890;SDS011;2971;52.420;7.080;2022-08-04T12:29:21;12.10;;;5.67;;
5890;SDS011;2971;52.420;7.080;2022-08-04T12:31:48;10.17;;;4.97;;
5890;SDS011;2971;52.420;7.080;2022-08-04T12:36:54;10.93;;;5.53;;
5890;SDS011;2971;52.420;7.080;2022-08-04T12:39:23;15.30;;;5.57;;
5890;SDS011;2971;52.420;7.080;2022-08-04T12:41:57;10.93;;;5.93;;
5890;SDS011;2971;52.420;7.080;2022-08-04T12:44:24;8.40;;;5.40;;
5890;SDS011;2971;52.420;7.080;2022-08-04T12:46:55;10.57;;;5.80;;
5890;SDS011;2971;52.420;7.080;2022-08-04T12:49:21;10.50;;;5.83;;
5890;SDS011;2971;52.420;7.080;2022-08-04T12:51:47;14.20;;;6.17;;
5890;SDS011;2971;52.420;7.080;2022-08-04T12:54:13;13.23;;;6.47;;
5890;SDS011;2971;52.420;7.080;2022-08-04T12:56:45;11.53;;;6.07;;
5890;SDS011;2971;52.420;7.080;2022-08-04T12:59:11;10.07;;;6.50;;
5890;SDS011;2971;52.420;7.080;2022-08-04T13:01:38;11.10;;;6.63;;
5890;SDS011;2971;52.420;7.080;2022-08-04T13:04:11;10.90;;;5.97;;
5890;SDS011;2971;52.420;7.080;2022-08-04T13:06:37;11.27;;;6.63;;
5890;SDS011;2971;52.420;7.080;2022-08-04T13:09:04;9.17;;;6.27;;
5890;SDS011;2971;52.420;7.080;2022-08-04T13:11:32;9.20;;;5.93;;
5890;SDS011;2971;52.420;7.080;2022-08-04T13:13:58;11.17;;;6.10;;
5890;SDS011;2971;52.420;7.080;2022-08-04T13:16:27;14.60;;;6.83;;
5890;SDS011;2971;52.420;7.080;2022-08-04T13:18:53;10.27;;;6.27;;
5890;SDS011;2971;52.420;7.080;2022-08-04T13:21:19;8.47;;;6.17;;
5890;SDS011;2971;52.420;7.080;2022-08-04T13:23:45;9.33;;;6.43;;
5890;SDS011;2971;52.420;7.080;2022-08-04T13:26:16;9.37;;;5.80;;
5890;SDS011;2971;52.420;7.080;2022-08-04T13:28:42;8.87;;;6.17;;
5890;SDS011;2971;52.420;7.080;2022-08-04T13:31:13;9.73;;;6.17;;
5890;SDS011;2971;52.420;7.080;2022-08-04T13:33:40;9.23;;;5.77;;
5890;SDS011;2971;52.420;7.080;2022-08-04T13:36:06;8.43;;;5.80;;
5890;SDS011;2971;52.420;7.080;2022-08-04T13:38:32;7.80;;;5.10;;
5890;SDS011;2971;52.420;7.080;2022-08-04T13:41:04;7.90;;;5.43;;
5890;SDS011;2971;52.420;7.080;2022-08-04T13:43:30;8.40;;;5.30;;
5890;SDS011;2971;52.420;7.080;2022-08-04T13:46:00;11.00;;;5.83;;
5890;SDS011;2971;52.420;7.080;2022-08-04T13:48:29;9.57;;;5.30;;
5890;SDS011;2971;52.420;7.080;2022-08-04T13:50:55;8.40;;;5.33;;
5890;SDS011;2971;52.420;7.080;2022-08-04T13:53:22;9.57;;;6.10;;
5890;SDS011;2971;52.420;7.080;2022-08-04T13:55:47;6.57;;;4.60;;
5890;SDS011;2971;52.420;7.080;2022-08-04T13:58:17;6.47;;;5.20;;
5890;SDS011;2971;52.420;7.080;2022-08-04T14:00:47;9.43;;;5.37;;
5890;SDS011;2971;52.420;7.080;2022-08-04T14:03:17;6.77;;;4.90;;
5890;SDS011;2971;52.420;7.080;2022-08-04T14:05:44;11.33;;;5.73;;
5890;SDS011;2971;52.420;7.080;2022-08-04T14:08:28;10.47;;;5.37;;
5890;SDS011;2971;52.420;7.080;2022-08-04T14:10:54;8.67;;;5.00;;
5890;SDS011;2971;52.420;7.080;2022-08-04T14:13:30;7.67;;;5.10;;
5890;SDS011;2971;52.420;7.080;2022-08-04T14:15:55;6.53;;;5.80;;
5890;SDS011;2971;52.420;7.080;2022-08-04T14:18:27;7.67;;;5.63;;
5890;SDS011;2971;52.420;7.080;2022-08-04T14:21:00;11.70;;;6.07;;
5890;SDS011;2971;52.420;7.080;2022-08-04T14:23:27;7.70;;;6.03;;
5890;SDS011;2971;52.420;7.080;2022-08-04T14:25:52;10.77;;;6.03;;
5890;SDS011;2971;52.420;7.080;2022-08-04T14:28:27;8.63;;;5.93;;
5890;SDS011;2971;52.420;7.080;2022-08-04T14:31:02;10.70;;;6.67;;
5890;SDS011;2971;52.420;7.080;2022-08-04T14:33:35;10.20;;;6.20;;
5890;SDS011;2971;52.420;7.080;2022-08-04T14:36:01;10.37;;;7.33;;
5890;SDS011;2971;52.420;7.080;2022-08-04T14:38:39;11.37;;;6.87;;
5890;SDS011;2971;52.420;7.080;2022-08-04T14:41:05;7.20;;;6.07;;
5890;SDS011;2971;52.420;7.080;2022-08-04T14:43:30;8.80;;;6.47;;
5890;SDS011;2971;52.420;7.080;2022-08-04T14:46:02;11.63;;;7.87;;
5890;SDS011;2971;52.420;7.080;2022-08-04T14:48:27;10.93;;;7.10;;
5890;SDS011;2971;52.420;7.080;2022-08-04T14:50:53;11.17;;;6.43;;
5890;SDS011;2971;52.420;7.080;2022-08-04T14:53:21;9.50;;;6.15;;
5890;SDS011;2971;52.420;7.080;2022-08-04T14:55:53;5.93;;;4.75;;
5890;SDS011;2971;52.420;7.080;2022-08-04T14:58:21;6.60;;;4.38;;
5890;SDS011;2971;52.420;7.080;2022-08-04T15:00:47;7.82;;;4.85;;
5890;SDS011;2971;52.420;7.080;2022-08-04T15:03:13;5.57;;;3.90;;
5890;SDS011;2971;52.420;7.080;2022-08-04T15:05:39;7.65;;;4.70;;
5890;SDS011;2971;52.420;7.080;2022-08-04T15:08:05;8.68;;;4.30;;
5890;SDS011;2971;52.420;7.080;2022-08-04T15:10:30;5.30;;;4.30;;
5890;SDS011;2971;52.420;7.080;2022-08-04T15:12:56;7.15;;;4.45;;
5890;SDS011;2971;52.420;7.080;2022-08-04T15:15:22;6.80;;;3.60;;
5890;SDS011;2971;52.420;7.080;2022-08-04T15:17:47;5.32;;;3.85;;
5890;SDS011;2971;52.420;7.080;2022-08-04T15:20:12;6.90;;;3.92;;
5890;SDS011;2971;52.420;7.080;2022-08-04T15:22:38;6.10;;;3.83;;
5890;SDS011;2971;52.420;7.080;2022-08-04T15:25:03;4.38;;;3.20;;
5890;SDS011;2971;52.420;7.080;2022-08-04T15:27:30;5.55;;;2.88;;
5890;SDS011;2971;52.420;7.080;2022-08-04T15:30:00;3.85;;;2.80;;
5890;SDS011;2971;52.420;7.080;2022-08-04T15:32:27;4.57;;;2.80;;
5890;SDS011;2971;52.420;7.080;2022-08-04T15:34:59;6.30;;;3.05;;
5890;SDS011;2971;52.420;7.080;2022-08-04T15:37:50;7.07;;;3.28;;
5890;SDS011;2971;52.420;7.080;2022-08-04T15:40:12;6.65;;;4.40;;
5890;SDS011;2971;52.420;7.080;2022-08-04T15:42:40;4.10;;;3.00;;
5890;SDS011;2971;52.420;7.080;2022-08-04T15:45:21;7.45;;;3.60;;
5890;SDS011;2971;52.420;7.080;2022-08-04T15:48:30;3.22;;;2.55;;
5890;SDS011;2971;52.420;7.080;2022-08-04T15:50:42;4.68;;;2.75;;
5890;SDS011;2971;52.420;7.080;2022-08-04T15:55:53;3.10;;;2.80;;
5890;SDS011;2971;52.420;7.080;2022-08-04T15:58:19;4.50;;;3.25;;
5890;SDS011;2971;52.420;7.080;2022-08-04T16:05:56;3.30;;;2.33;;
5890;SDS011;2971;52.420;7.080;2022-08-04T16:08:22;5.93;;;2.90;;
5890;SDS011;2971;52.420;7.080;2022-08-04T16:10:47;6.07;;;3.50;;
5890;SDS011;2971;52.420;7.080;2022-08-04T16:13:14;7.78;;;4.80;;
5890;SDS011;2971;52.420;7.080;2022-08-04T16:15:50;4.53;;;3.30;;
5890;SDS011;2971;52.420;7.080;2022-08-04T16:18:19;4.50;;;2.90;;
5890;SDS011;2971;52.420;7.080;2022-08-04T16:20:45;5.60;;;3.95;;
5890;SDS011;2971;52.420;7.080;2022-08-04T16:25:42;3.92;;;2.83;;
5890;SDS011;2971;52.420;7.080;2022-08-04T16:30:58;4.78;;;3.13;;
5890;SDS011;2971;52.420;7.080;2022-08-04T16:33:27;5.43;;;4.50;;
5890;SDS011;2971;52.420;7.080;2022-08-04T16:35:52;5.80;;;4.47;;
5890;SDS011;2971;52.420;7.080;2022-08-04T16:38:20;3.75;;;2.20;;
5890;SDS011;2971;52.420;7.080;2022-08-04T16:40:52;5.10;;;2.40;;
5890;SDS011;2971;52.420;7.080;2022-08-04T16:43:18;8.98;;;6.25;;
5890;SDS011;2971;52.420;7.080;2022-08-04T16:45:46;6.13;;;4.15;;
5890;SDS011;2971;52.420;7.080;2022-08-04T16:48:12;4.95;;;2.33;;
5890;SDS011;2971;52.420;7.080;2022-08-04T16:50:44;8.02;;;4.75;;
5890;SDS011;2971;52.420;7.080;2022-08-04T16:53:10;4.22;;;2.58;;
5890;SDS011;2971;52.420;7.080;2022-08-04T16:55:37;7.57;;;5.70;;
5890;SDS011;2971;52.420;7.080;2022-08-04T16:58:02;6.15;;;5.10;;
5890;SDS011;2971;52.420;7.080;2022-08-04T17:00:33;5.57;;;2.83;;
5890;SDS011;2971;52.420;7.080;2022-08-04T17:03:02;5.53;;;3.70;;
5890;SDS011;2971;52.420;7.080;2022-08-04T17:05:28;7.05;;;4.30;;
5890;SDS011;2971;52.420;7.080;2022-08-04T17:07:54;6.25;;;4.00;;
5890;SDS011;2971;52.420;7.080;2022-08-04T17:10:30;8.85;;;5.45;;
5890;SDS011;2971;52.420;7.080;2022-08-04T17:12:56;7.43;;;5.03;;
5890;SDS011;2971;52.420;7.080;2022-08-04T17:15:22;5.25;;;3.47;;
5890;SDS011;2971;52.420;7.080;2022-08-04T17:17:47;5.53;;;4.00;;
5890;SDS011;2971;52.420;7.080;2022-08-04T17:20:12;6.45;;;3.28;;
5890;SDS011;2971;52.420;7.080;2022-08-04T17:22:38;4.68;;;2.97;;
5890;SDS011;2971;52.420;7.080;2022-08-04T17:25:03;4.88;;;3.47;;
5890;SDS011;2971;52.420;7.080;2022-08-04T17:27:29;6.55;;;4.40;;
5890;SDS011;2971;52.420;7.080;2022-08-04T17:29:54;4.50;;;3.13;;
5890;SDS011;2971;52.420;7.080;2022-08-04T17:32:20;3.90;;;3.03;;
5890;SDS011;2971;52.420;7.080;2022-08-04T17:34:46;5.80;;;3.08;;
5890;SDS011;2971;52.420;7.080;2022-08-04T17:37:12;3.08;;;2.28;;
5890;SDS011;2971;52.420;7.080;2022-08-04T17:39:37;2.65;;;2.30;;
5890;SDS011;2971;52.420;7.080;2022-08-04T17:42:02;5.63;;;2.08;;
5890;SDS011;2971;52.420;7.080;2022-08-04T17:44:34;3.47;;;2.03;;
5890;SDS011;2971;52.420;7.080;2022-08-04T17:47:06;4.55;;;1.92;;
5890;SDS011;2971;52.420;7.080;2022-08-04T17:49:32;4.18;;;2.10;;
5890;SDS011;2971;52.420;7.080;2022-08-04T17:51:58;2.70;;;2.03;;
5890;SDS011;2971;52.420;7.080;2022-08-04T17:56:51;6.30;;;2.53;;
5890;SDS011;2971;52.420;7.080;2022-08-04T17:59:21;6.40;;;2.23;;
5890;SDS011;2971;52.420;7.080;2022-08-04T18:06:50;7.90;;;2.33;;
5890;SDS011;2971;52.420;7.080;2022-08-04T18:14:27;4.27;;;2.40;;
5890;SDS011;2971;52.420;7.080;2022-08-04T18:16:54;3.53;;;1.73;;
5890;SDS011;2971;52.420;7.080;2022-08-04T18:19:19;3.90;;;1.90;;
5890;SDS011;2971;52.420;7.080;2022-08-04T18:21:45;3.47;;;1.77;;
5890;SDS011;2971;52.420;7.080;2022-08-04T18:24:13;3.97;;;2.00;;
5890;SDS011;2971;52.420;7.080;2022-08-04T18:26:39;3.90;;;2.20;;
5890;SDS011;2971;52.420;7.080;2022-08-04T18:29:04;3.73;;;1.90;;
5890;SDS011;2971;52.420;7.080;2022-08-04T18:31:32;3.27;;;1.80;;
5890;SDS011;2971;52.420;7.080;2022-08-04T18:33:57;2.63;;;1.87;;
5890;SDS011;2971;52.420;7.080;2022-08-04T18:36:22;3.20;;;1.90;;
5890;SDS011;2971;52.420;7.080;2022-08-04T18:38:47;4.63;;;2.10;;
5890;SDS011;2971;52.420;7.080;2022-08-04T18:41:13;6.33;;;2.10;;
5890;SDS011;2971;52.420;7.080;2022-08-04T18:43:38;4.27;;;2.20;;
5890;SDS011;2971;52.420;7.080;2022-08-04T18:46:03;5.40;;;2.40;;
5890;SDS011;2971;52.420;7.080;2022-08-04T18:48:28;4.10;;;2.30;;
5890;SDS011;2971;52.420;7.080;2022-08-04T18:50:54;6.10;;;2.17;;
5890;SDS011;2971;52.420;7.080;2022-08-04T18:53:19;6.20;;;2.80;;
5890;SDS011;2971;52.420;7.080;2022-08-04T18:55:45;3.93;;;2.50;;
5890;SDS011;2971;52.420;7.080;2022-08-04T18:58:10;4.40;;;2.40;;
5890;SDS011;2971;52.420;7.080;2022-08-04T19:00:35;5.87;;;2.57;;
5890;SDS011;2971;52.420;7.080;2022-08-04T19:03:03;3.83;;;2.60;;
5890;SDS011;2971;52.420;7.080;2022-08-04T19:05:28;4.73;;;2.40;;
5890;SDS011;2971;52.420;7.080;2022-08-04T19:07:53;4.20;;;2.47;;
5890;SDS011;2971;52.420;7.080;2022-08-04T19:10:18;4.23;;;2.33;;
5890;SDS011;2971;52.420;7.080;2022-08-04T19:12:44;7.43;;;2.97;;
5890;SDS011;2971;52.420;7.080;2022-08-04T19:15:09;4.07;;;2.80;;
5890;SDS011;2971;52.420;7.080;2022-08-04T19:17:34;5.57;;;2.73;;
5890;SDS011;2971;52.420;7.080;2022-08-04T19:19:59;4.20;;;2.40;;
5890;SDS011;2971;52.420;7.080;2022-08-04T19:22:27;5.53;;;2.10;;